Data for 06/01/2014

Time Sea-Level Adjusted Pressure Absolute Pressure Temperature Relative Humidity Dew Point   
(mb) (inHg) (mb) (inHg) (C) (F) (%) (C) (F)
00:05 1017 30.03 846 24.98 10.5 50.8 66 4.5 40.1
00:10 1017 30.03 846 24.98 10.2 50.3 68 4.5 40.1
00:15 1017 30.03 846 24.98 10 50 68 4.5 40
00:20 1017 30.03 846 24.98 10 50 68 4.4 39.9
00:25 1017 30.03 846 24.98 10.2 50.3 69 4.8 40.6
00:30 1017 30.03 846 24.98 10.2 50.3 69 4.7 40.4
00:35 1017 30.03 846 24.98 10.1 50.2 70 4.8 40.7
00:40 1017 30.03 846 24.98 10 50 70 4.9 40.8
00:45 1017 30.03 846 24.98 10.1 50.2 71 5.1 41.2
00:50 1017 30.03 847 25.01 10.2 50.3 72 5.4 41.7
00:55 1018 30.06 847 25.01 10.1 50.1 73 5.4 41.7
01:00 1018 30.06 847 25.01 9.9 49.8 74 5.4 41.8
01:05 1018 30.06 847 25.01 9.6 49.3 75 5.5 41.8
01:10 1018 30.06 847 25.01 9.4 48.8 77 5.5 41.8
01:15 1018 30.06 847 25.01 9.5 49 77 5.6 42.1
01:20 1018 30.06 847 25.01 9.3 48.8 77 5.6 42.1
01:25 1018 30.06 847 25.01 9.2 48.5 79 5.8 42.5
01:30 1018 30.06 847 25.01 9 48.2 81 5.9 42.7
01:35 1018 30.06 847 25.01 9 48.1 84 6.4 43.5
01:40 1018 30.06 847 25.01 9 48.2 81 6 42.7
01:45 1018 30.06 847 25.01 9.1 48.4 84 6.7 44
01:50 1018 30.06 847 25.01 9.1 48.3 85 6.6 43.9
01:55 1018 30.06 847 25.01 9.1 48.3 86 6.8 44.3
02:00 1018 30.06 847 25.01 9.1 48.4 85 6.7 44.1
02:05 1018 30.06 847 25.01 9.3 48.7 85 6.9 44.5
02:10 1018 30.06 847 25.01 9.2 48.6 86 6.9 44.5
02:15 1018 30.06 848 25.04 9.2 48.5 85 6.8 44.3
02:20 1018 30.06 848 25.04 9.1 48.4 86 7 44.5
02:25 1018 30.06 848 25.04 9.2 48.5 87 7 44.7
02:30 1019 30.09 848 25.04 9.1 48.4 86 7 44.5
02:35 1019 30.09 848 25.04 9 48.2 87 7 44.5
02:40 1019 30.09 848 25.04 8.9 48.1 87 6.8 44.3
02:45 1019 30.09 848 25.04 8.9 47.9 86 6.6 43.9
02:50 1019 30.09 848 25.04 8.8 47.9 85 6.5 43.8
02:55 1019 30.09 848 25.04 8.8 47.8 83 6.1 43
03:00 1019 30.09 848 25.04 8.8 47.9 83 6.1 42.9
03:05 1019 30.09 848 25.04 8.8 47.9 81 5.7 42.3
03:10 1019 30.09 848 25.04 8.8 47.8 81 5.8 42.4
03:15 1019 30.09 848 25.04 8.7 47.6 83 5.9 42.6
03:20 1019 30.09 848 25.04 8.4 47.1 83 5.7 42.3
03:25 1019 30.09 848 25.04 8 46.5 85 5.6 42.1
03:30 1019 30.09 848 25.04 7.9 46.1 84 5.3 41.5
03:35 1019 30.09 848 25.04 7.8 46 84 5.3 41.5
03:40 1019 30.09 848 25.04 7.8 46 82 4.9 40.9
03:45 1019 30.09 848 25.04 7.9 46.2 81 4.9 40.8
03:50 1018 30.06 848 25.04 8.1 46.6 82 5.1 41.2
03:55 1018 30.06 847 25.01 8.2 46.7 80 5 41
04:00 1018 30.06 847 25.01 8.1 46.7 82 5.3 41.6
04:05 1018 30.06 847 25.01 8 46.4 84 5.4 41.7
04:10 1018 30.06 848 25.04 7.7 45.8 88 5.7 42.3
04:15 1019 30.09 848 25.04 7.5 45.4 85 5.1 41.1
04:20 1019 30.09 848 25.04 7.6 45.8 86 5.4 41.7
04:25 1019 30.09 848 25.04 7.5 45.5 86 5.4 41.7
04:30 1019 30.09 848 25.04 7.5 45.5 86 5.3 41.6
04:35 1019 30.09 848 25.04 7.4 45.3 88 5.5 41.8
04:40 1019 30.09 848 25.04 7.3 45.1 88 5.5 41.9
04:45 1018 30.06 848 25.04 7.3 45.1 88 5.4 41.8
04:50 1018 30.06 848 25.04 7.4 45.2 88 5.6 42
04:55 1018 30.06 847 25.01 7.4 45.2 88 5.5 41.9
05:00 1018 30.06 847 25.01 7.4 45.2 89 5.7 42.3
05:05 1018 30.06 847 25.01 7.3 45.1 89 5.6 42
05:10 1018 30.06 847 25.01 7.3 45.1 89 5.5 42
05:15 1018 30.06 847 25.01 7.2 45 90 5.7 42.2
05:20 1018 30.06 847 25.01 7.1 44.7 90 5.5 41.9
05:25 1018 30.06 847 25.01 7 44.6 90 5.5 41.8
05:30 1018 30.06 847 25.01 6.9 44.4 90 5.4 41.7
05:35 1018 30.06 847 25.01 6.8 44.2 89 5.2 41.3
05:40 1018 30.06 847 25.01 6.8 44.2 89 5.1 41.2
05:45 1018 30.06 847 25.01 6.8 44.2 88 4.9 40.8
05:50 1018 30.06 847 25.01 6.9 44.4 88 5.1 41.2
05:55 1018 30.06 847 25.01 6.9 44.5 89 5.2 41.4
06:00 1018 30.06 847 25.01 7 44.6 89 5.3 41.6
06:05 1018 30.06 847 25.01 7.1 44.7 88 5.2 41.4
06:10 1018 30.06 847 25.01 7 44.7 86 4.9 40.9
06:15 1018 30.06 848 25.04 7 44.6 86 4.8 40.7
06:20 1018 30.06 848 25.04 7.2 45 86 5.1 41.1
06:25 1019 30.09 848 25.04 7.5 45.4 85 5.2 41.3
06:30 1019 30.09 848 25.04 7.7 45.9 86 5.6 42.1
06:35 1019 30.09 848 25.04 8.1 46.5 87 6 42.8
06:40 1019 30.09 848 25.04 8.2 46.8 88 6.4 43.5
06:45 1019 30.09 848 25.04 8.4 47 88 6.5 43.7
06:50 1019 30.09 848 25.04 8.5 47.2 86 6.2 43.2
06:55 1019 30.09 848 25.04 8.5 47.3 85 6.2 43.2
07:00 1019 30.09 848 25.04 8.9 48 84 6.4 43.5
07:05 1019 30.09 848 25.04 9 48.2 83 6.3 43.4
07:10 1019 30.09 848 25.04 9.1 48.4 83 6.4 43.6
07:15 1019 30.09 848 25.04 9.2 48.5 84 6.5 43.8
07:20 1019 30.09 848 25.04 9.1 48.4 82 6.3 43.3
07:25 1019 30.09 848 25.04 9.2 48.5 82 6.3 43.4
07:30 1019 30.09 848 25.04 9.3 48.7 82 6.4 43.4
07:35 1019 30.09 848 25.04 9.3 48.8 84 6.8 44.2
07:40 1019 30.09 848 25.04 9.2 48.5 85 6.9 44.4
07:45 1019 30.09 848 25.04 9 48.2 85 6.6 43.8
07:50 1019 30.09 848 25.04 8.8 47.9 85 6.4 43.6
07:55 1019 30.09 848 25.04 8.8 47.8 85 6.4 43.6
08:00 1019 30.09 848 25.04 8.8 47.9 85 6.4 43.5
08:05 1019 30.09 848 25.04 8.8 47.9 84 6.4 43.4
08:10 1019 30.09 848 25.04 8.7 47.7 84 6.1 43
08:15 1019 30.09 848 25.04 8.7 47.7 83 6.1 42.9
08:20 1019 30.09 848 25.04 8.9 47.9 81 5.8 42.5
08:25 1019 30.09 849 25.07 8.8 47.9 83 6.1 43
08:30 1019 30.09 849 25.07 8.8 47.8 84 6.2 43.1
08:35 1019 30.09 849 25.07 8.7 47.7 84 6.1 43.1
08:40 1019 30.09 849 25.07 8.9 47.9 83 6.1 42.9
08:45 1019 30.09 849 25.07 9 48.1 83 6.2 43.2
08:50 1020 30.12 849 25.07 9.1 48.4 84 6.6 44
08:55 1020 30.12 849 25.07 9.4 48.9 82 6.4 43.6
09:00 1020 30.12 849 25.07 9.6 49.3 80 6.3 43.4
09:05 1020 30.12 849 25.07 9.6 49.3 79 6.2 43.1
09:10 1020 30.12 849 25.07 9.5 49.1 79 6 42.8
09:15 1020 30.12 849 25.07 9.4 49 79 6 42.8
09:20 1020 30.12 849 25.07 9.5 49.1 78 5.8 42.5
09:25 1020 30.12 849 25.07 9.5 49.1 78 5.9 42.6
09:30 1020 30.12 849 25.07 9.3 48.8 79 5.8 42.5
09:35 1020 30.12 849 25.07 9.3 48.7 80 6 42.7
09:40 1020 30.12 849 25.07 9.5 49.2 78 5.8 42.5
09:45 1020 30.12 849 25.07 9.7 49.5 78 6.1 42.9
09:50 1020 30.12 849 25.07 9.5 49 81 6.4 43.5
09:55 1020 30.12 849 25.07 9.9 49.9 76 6 42.8
10:00 1020 30.12 849 25.07 9.9 49.7 75 5.6 42
10:05 1020 30.12 849 25.07 10.3 50.5 78 6.7 44
10:10 1020 30.12 849 25.07 10.9 51.5 67 5 40.9
10:15 1020 30.12 849 25.07 10.6 51 71 5.5 41.9
10:20 1020 30.12 849 25.07 11 51.7 69 5.6 42.1
10:25 1020 30.12 849 25.07 11.4 52.5 67 5.6 42.1
10:30 1020 30.12 849 25.07 11.7 53 65 5.4 41.6
10:35 1020 30.12 849 25.07 11.4 52.5 67 5.5 41.9
10:40 1020 30.12 849 25.07 11.6 52.9 62 4.5 40.1
10:45 1020 30.12 849 25.07 12 53.7 60 4.7 40.4
10:50 1020 30.12 849 25.07 12.4 54.3 58 4.5 40.1
10:55 1020 30.12 849 25.07 13.8 56.8 55 4.8 40.7
11:00 1020 30.12 849 25.07 13.7 56.7 56 5.3 41.5
11:05 1020 30.12 849 25.07 13.2 55.7 57 4.9 40.9
11:10 1019 30.09 849 25.07 13.2 55.7 56 4.7 40.4
11:15 1019 30.09 849 25.07 13.9 57 55 5 41
11:20 1019 30.09 849 25.07 14.7 58.5 54 5.5 42
11:25 1019 30.09 849 25.07 15 59 51 4.9 40.9
11:30 1019 30.09 849 25.07 15 58.9 50 4.7 40.4
11:35 1019 30.09 849 25.07 15 59 53 5.5 41.9
11:40 1019 30.09 849 25.07 15.1 59.1 48 4.3 39.8
11:45 1019 30.09 849 25.07 15.7 60.3 47 4.4 40
11:50 1019 30.09 849 25.07 15.8 60.4 46 4.4 39.8
11:55 1019 30.09 849 25.07 15.6 60 43 3.2 37.8
12:00 1019 30.09 849 25.07 15.1 59.2 49 4.6 40.3
12:05 1019 30.09 849 25.07 15.6 60 47 4.5 40.1
12:10 1019 30.09 849 25.07 16.3 61.4 45 4.6 40.2
12:15 1019 30.09 849 25.07 16.3 61.4 44 4.1 39.4
12:20 1019 30.09 849 25.07 16.1 60.9 45 4.2 39.5
12:25 1020 30.12 849 25.07 15.7 60.2 44 3.7 38.6
12:30 1020 30.12 849 25.07 16.1 61 43 3.7 38.7
12:35 1020 30.12 849 25.07 16.8 62.2 42 4.1 39.3
12:40 1020 30.12 849 25.07 16.6 61.8 45 4.8 40.7
12:45 1020 30.12 849 25.07 16.4 61.5 45 4.4 40
12:50 1020 30.12 849 25.07 17.1 62.7 42 4.1 39.4
12:55 1020 30.12 849 25.07 17.2 62.9 44 5 41
13:00 1020 30.12 849 25.07 16.4 61.4 43 3.8 38.8
13:05 1020 30.12 849 25.07 16.2 61.2 44 4.1 39.4
13:10 1020 30.12 849 25.07 15.6 60 51 5.4 41.8
13:15 1020 30.12 849 25.07 14.4 57.8 53 5 41
13:20 1019 30.09 849 25.07 14.4 58 54 5.3 41.5
13:25 1019 30.09 849 25.07 14.1 57.3 52 4.6 40.2
13:30 1019 30.09 849 25.07 15.5 60 47 4.2 39.6
13:35 1019 30.09 849 25.07 16 60.8 46 4.4 39.9
13:40 1019 30.09 849 25.07 15.8 60.4 48 4.9 40.8
13:45 1019 30.09 849 25.07 14.7 58.5 51 4.7 40.4
13:50 1019 30.09 849 25.07 15 59.1 47 3.9 39
13:55 1019 30.09 849 25.07 15.4 59.8 52 5.7 42.3
14:00 1019 30.09 849 25.07 15.1 59.2 54 5.9 42.7
14:05 1019 30.09 849 25.07 14.9 58.9 52 5.3 41.5
14:10 1020 30.12 849 25.07 14.7 58.5 50 4.4 39.9
14:15 1020 30.12 849 25.07 14.5 58 52 4.8 40.7
14:20 1020 30.12 849 25.07 14.5 58 53 5.2 41.4
14:25 1020 30.12 849 25.07 14.4 57.9 57 6 42.8
14:30 1020 30.12 849 25.07 13.9 57 62 6.7 44.1
14:35 1020 30.12 849 25.07 13.4 56.1 64 6.7 44
14:40 1020 30.12 849 25.07 14 57.2 58 6 42.7
14:45 1020 30.12 849 25.07 13.7 56.6 61 6.4 43.5
14:50 1020 30.12 849 25.07 13.1 55.5 60 5.6 42
14:55 1020 30.12 849 25.07 14.3 57.7 56 5.7 42.2
15:00 1020 30.12 849 25.07 15 59.1 52 5.4 41.7
15:05 1020 30.12 849 25.07 15.3 59.6 50 4.9 40.9
15:10 1020 30.12 849 25.07 16.1 61.1 47 4.9 40.8
15:15 1020 30.12 849 25.07 15.6 60.1 49 5.1 41.3
15:20 1020 30.12 849 25.07 16 60.8 47 4.7 40.5
15:25 1020 30.12 849 25.07 16.7 62.1 45 4.9 40.8
15:30 1020 30.12 849 25.07 16.9 62.4 43 4.3 39.8
15:35 1020 30.12 849 25.07 17.3 63.2 42 4.3 39.8
15:40 1019 30.09 849 25.07 17.7 63.8 39 3.9 38.9
15:45 1019 30.09 849 25.07 17.7 63.8 40 3.9 39.1
15:50 1019 30.09 849 25.07 17.1 62.8 39 3 37.4
15:55 1019 30.09 849 25.07 17.2 63 38 3 37.4
16:00 1019 30.09 848 25.04 18.1 64.5 34 2.1 35.7
16:05 1019 30.09 849 25.07 18 64.5 43 5.3 41.5
16:10 1019 30.09 848 25.04 16.3 61.4 46 4.9 40.9
16:15 1019 30.09 848 25.04 15.6 60.1 50 5.3 41.5
16:20 1019 30.09 848 25.04 15.2 59.3 51 5.2 41.4
16:25 1019 30.09 848 25.04 14.9 58.8 51 4.8 40.7
16:30 1019 30.09 848 25.04 14.8 58.6 52 5 40.9
16:35 1019 30.09 848 25.04 15.2 59.3 49 4.7 40.4
16:40 1019 30.09 848 25.04 14.9 58.8 51 4.8 40.6
16:45 1019 30.09 848 25.04 14.9 58.8 50 4.7 40.4
16:50 1019 30.09 848 25.04 15.3 59.6 45 3.5 38.3
16:55 1019 30.09 848 25.04 16 60.7 43 3.6 38.6
17:00 1019 30.09 848 25.04 15.9 60.7 45 4 39.3
17:05 1019 30.09 848 25.04 15.7 60.2 44 3.5 38.3
17:10 1019 30.09 848 25.04 16.5 61.8 44 4.2 39.6
17:15 1019 30.09 848 25.04 16.8 62.3 44 4.7 40.4
17:20 1019 30.09 848 25.04 16.4 61.4 44 4.2 39.5
17:25 1019 30.09 848 25.04 15.9 60.7 43 3.5 38.3
17:30 1019 30.09 848 25.04 16.5 61.8 42 3.5 38.3
17:35 1019 30.09 848 25.04 16.8 62.2 41 3.7 38.6
17:40 1019 30.09 848 25.04 17 62.5 40 3.5 38.2
17:45 1019 30.09 848 25.04 16.8 62.2 42 3.8 38.9
17:50 1019 30.09 848 25.04 16.8 62.3 41 3.6 38.5
17:55 1019 30.09 848 25.04 17.1 62.8 40 3.5 38.3
18:00 1019 30.09 848 25.04 16.9 62.5 41 3.7 38.7
18:05 1019 30.09 848 25.04 16.9 62.5 41 3.7 38.6
18:10 1019 30.09 848 25.04 16.3 61.4 43 3.7 38.7
18:15 1019 30.09 848 25.04 16.2 61.2 43 3.6 38.4
18:20 1019 30.09 848 25.04 16 60.8 43 3.6 38.5
18:25 1019 30.09 848 25.04 16.2 61.1 43 3.8 38.8
18:30 1019 30.09 848 25.04 16.3 61.3 44 3.9 39.1
18:35 1019 30.09 848 25.04 16.2 61.1 43 3.6 38.6
18:40 1019 30.09 848 25.04 16 60.8 43 3.7 38.6
18:45 1019 30.09 848 25.04 15.9 60.5 45 3.9 39.1
18:50 1019 30.09 849 25.07 15.8 60.4 45 3.9 39
18:55 1019 30.09 849 25.07 15.6 60.1 47 4.3 39.8
19:00 1019 30.09 849 25.07 14.9 58.8 55 6.1 42.9
19:05 1020 30.12 849 25.07 14.2 57.5 58 6.1 42.9
19:10 1020 30.12 849 25.07 13.9 57 59 6 42.8
19:15 1020 30.12 849 25.07 13.8 56.8 57 5.5 41.8
19:20 1020 30.12 849 25.07 13.8 56.8 57 5.5 42
19:25 1020 30.12 849 25.07 13.9 57.1 57 5.7 42.2
19:30 1020 30.12 849 25.07 14 57.2 57 5.8 42.5
19:35 1020 30.12 849 25.07 14 57.1 57 5.7 42.2
19:40 1020 30.12 849 25.07 13.8 56.8 61 6.5 43.6
19:45 1020 30.12 849 25.07 13.6 56.5 64 6.9 44.5
19:50 1020 30.12 849 25.07 13.1 55.5 67 7.1 44.7
19:55 1020 30.12 849 25.07 12.6 54.6 69 7 44.7
20:00 1020 30.12 849 25.07 12.2 54 69 6.9 44.4
20:05 1020 30.12 849 25.07 12.2 53.9 69 6.6 43.9
20:10 1020 30.12 849 25.07 12 53.7 69 6.6 43.9
20:15 1020 30.12 849 25.07 12 53.5 71 6.8 44.3
20:20 1020 30.12 849 25.07 11.7 53 73 7.1 44.8
20:25 1020 30.12 849 25.07 11.4 52.6 74 6.9 44.5
20:30 1020 30.12 849 25.07 11.4 52.5 75 7 44.7
20:35 1020 30.12 849 25.07 11.2 52.2 76 7.1 44.8
20:40 1020 30.12 849 25.07 11 51.8 76 6.9 44.5
20:45 1020 30.12 849 25.07 11 51.8 75 6.8 44.3
20:50 1020 30.12 849 25.07 11 51.8 76 6.9 44.4
20:55 1020 30.12 849 25.07 10.9 51.7 74 6.5 43.7
21:00 1020 30.12 849 25.07 11.1 51.9 72 6.2 43.2
21:05 1020 30.12 849 25.07 11.2 52.1 73 6.4 43.6
21:10 1020 30.12 849 25.07 10.9 51.7 76 7 44.5
21:15 1020 30.12 849 25.07 10.3 50.6 78 6.8 44.2
21:20 1020 30.12 849 25.07 10.1 50.2 80 6.8 44.3
21:25 1020 30.12 849 25.07 10 50 80 6.7 44
21:30 1020 30.12 849 25.07 10 49.9 79 6.6 43.9
21:35 1020 30.12 849 25.07 9.8 49.6 81 6.7 44.1
21:40 1020 30.12 849 25.07 9.5 49.1 80 6.2 43.2
21:45 1020 30.12 849 25.07 9.5 49.1 80 6.2 43.2
21:50 1020 30.12 849 25.07 9.5 49.1 80 6.3 43.3
21:55 1020 30.12 849 25.07 9.5 49.1 81 6.3 43.4
22:00 1020 30.12 849 25.07 9.5 49 80 6.1 43.1
22:05 1020 30.12 849 25.07 9.3 48.7 80 6 42.7
22:10 1020 30.12 849 25.07 9.1 48.4 80 5.9 42.6
22:15 1020 30.12 849 25.07 9 48.2 79 5.6 42.1
22:20 1020 30.12 849 25.07 8.9 48.1 80 5.6 42.1
22:25 1020 30.12 849 25.07 8.8 47.8 80 5.5 42
22:30 1020 30.12 849 25.07 8.7 47.7 80 5.4 41.8
22:35 1020 30.12 849 25.07 8.8 47.8 79 5.4 41.7
22:40 1020 30.12 849 25.07 8.9 48.1 79 5.5 41.9
22:45 1020 30.12 849 25.07 8.9 48 79 5.5 41.8
22:50 1020 30.12 849 25.07 8.9 47.9 80 5.6 42
22:55 1020 30.12 849 25.07 8.5 47.4 81 5.4 41.8
23:00 1020 30.12 849 25.07 8.3 47 81 5.2 41.3
23:05 1020 30.12 849 25.07 8.3 47 80 5.1 41.3
23:10 1020 30.12 849 25.07 8.3 46.9 80 5 41
23:15 1020 30.12 849 25.07 8.3 46.9 80 5 40.9
23:20 1020 30.12 849 25.07 8.3 46.9 79 4.9 40.7
23:25 1020 30.12 849 25.07 8.5 47.2 78 4.9 40.9
23:30 1020 30.12 849 25.07 8.5 47.2 78 4.9 40.9
23:35 1020 30.12 849 25.07 8.3 46.9 79 4.9 40.8
23:40 1020 30.12 849 25.07 7.9 46.3 80 4.8 40.6
23:45 1020 30.12 849 25.07 7.6 45.6 82 4.6 40.3
23:50 1020 30.12 849 25.07 7.5 45.5 81 4.5 40.1
23:55 1020 30.12 849 25.07 7.5 45.5 81 4.5 40.1
24:00 1020 30.12 849 25.07 7.4 45.3 82 4.6 40.2